sensor_id;sensor_type;location;lat;lon;timestamp;temperature;humidity
49829;DHT22;35723;51.194;5.112;2022-12-16T00:00:31;0.20;99.90
49829;DHT22;35723;51.194;5.112;2022-12-16T00:03:00;0.20;99.90
49829;DHT22;35723;51.194;5.112;2022-12-16T00:05:27;0.20;99.90
49829;DHT22;35723;51.194;5.112;2022-12-16T00:07:53;0.50;99.90
49829;DHT22;35723;51.194;5.112;2022-12-16T00:10:20;0.40;99.90
49829;DHT22;35723;51.194;5.112;2022-12-16T00:12:45;0.40;99.90
49829;DHT22;35723;51.194;5.112;2022-12-16T00:15:11;0.40;99.90
49829;DHT22;35723;51.194;5.112;2022-12-16T00:17:37;0.40;99.90
49829;DHT22;35723;51.194;5.112;2022-12-16T00:20:04;0.40;99.90
49829;DHT22;35723;51.194;5.112;2022-12-16T00:22:30;0.40;99.90
49829;DHT22;35723;51.194;5.112;2022-12-16T00:24:56;0.40;99.90
49829;DHT22;35723;51.194;5.112;2022-12-16T00:27:22;0.40;99.90
49829;DHT22;35723;51.194;5.112;2022-12-16T00:29:47;0.60;99.90
49829;DHT22;35723;51.194;5.112;2022-12-16T00:32:13;0.50;99.90
49829;DHT22;35723;51.194;5.112;2022-12-16T00:34:39;0.50;99.90
49829;DHT22;35723;51.194;5.112;2022-12-16T00:37:04;0.50;99.90
49829;DHT22;35723;51.194;5.112;2022-12-16T00:39:31;0.50;99.90
49829;DHT22;35723;51.194;5.112;2022-12-16T00:41:56;0.50;99.90
49829;DHT22;35723;51.194;5.112;2022-12-16T00:44:22;0.60;99.90
49829;DHT22;35723;51.194;5.112;2022-12-16T00:46:48;0.60;99.90
49829;DHT22;35723;51.194;5.112;2022-12-16T00:49:14;0.60;99.90
49829;DHT22;35723;51.194;5.112;2022-12-16T00:51:40;0.60;99.90
49829;DHT22;35723;51.194;5.112;2022-12-16T00:54:06;0.60;99.90
49829;DHT22;35723;51.194;5.112;2022-12-16T00:56:31;0.50;99.90
49829;DHT22;35723;51.194;5.112;2022-12-16T00:58:57;0.50;99.90
49829;DHT22;35723;51.194;5.112;2022-12-16T01:01:22;0.50;99.90
49829;DHT22;35723;51.194;5.112;2022-12-16T01:03:48;0.60;99.90
49829;DHT22;35723;51.194;5.112;2022-12-16T01:06:16;0.60;99.90
49829;DHT22;35723;51.194;5.112;2022-12-16T01:08:42;0.60;99.90
49829;DHT22;35723;51.194;5.112;2022-12-16T01:11:15;0.60;99.90
49829;DHT22;35723;51.194;5.112;2022-12-16T01:13:41;0.70;99.90
49829;DHT22;35723;51.194;5.112;2022-12-16T01:16:07;0.70;99.90
49829;DHT22;35723;51.194;5.112;2022-12-16T01:18:32;0.80;99.90
49829;DHT22;35723;51.194;5.112;2022-12-16T01:21:04;0.80;99.90
49829;DHT22;35723;51.194;5.112;2022-12-16T01:23:29;0.90;99.90
49829;DHT22;35723;51.194;5.112;2022-12-16T01:25:57;0.80;99.90
49829;DHT22;35723;51.194;5.112;2022-12-16T01:28:23;0.80;99.90
49829;DHT22;35723;51.194;5.112;2022-12-16T01:30:54;0.80;99.90
49829;DHT22;35723;51.194;5.112;2022-12-16T01:33:21;0.80;99.90
49829;DHT22;35723;51.194;5.112;2022-12-16T01:35:47;0.80;99.90
49829;DHT22;35723;51.194;5.112;2022-12-16T01:38:13;0.90;99.90
49829;DHT22;35723;51.194;5.112;2022-12-16T01:40:38;0.90;99.90
49829;DHT22;35723;51.194;5.112;2022-12-16T01:43:11;0.90;99.90
49829;DHT22;35723;51.194;5.112;2022-12-16T01:45:37;1.00;99.90
49829;DHT22;35723;51.194;5.112;2022-12-16T01:50:58;0.90;99.90
49829;DHT22;35723;51.194;5.112;2022-12-16T01:53:25;0.90;99.90
49829;DHT22;35723;51.194;5.112;2022-12-16T01:55:51;1.00;99.90
49829;DHT22;35723;51.194;5.112;2022-12-16T01:58:22;0.90;99.90
49829;DHT22;35723;51.194;5.112;2022-12-16T02:00:49;1.00;99.90
49829;DHT22;35723;51.194;5.112;2022-12-16T02:03:15;1.00;99.90
49829;DHT22;35723;51.194;5.112;2022-12-16T02:05:41;0.90;99.90
49829;DHT22;35723;51.194;5.112;2022-12-16T02:08:12;0.90;99.90
49829;DHT22;35723;51.194;5.112;2022-12-16T02:15:40;1.00;99.90
49829;DHT22;35723;51.194;5.112;2022-12-16T02:18:18;1.10;99.90
49829;DHT22;35723;51.194;5.112;2022-12-16T02:21:05;1.10;99.90
49829;DHT22;35723;51.194;5.112;2022-12-16T02:29:04;1.10;99.90
49829;DHT22;35723;51.194;5.112;2022-12-16T02:31:34;1.10;99.90
49829;DHT22;35723;51.194;5.112;2022-12-16T02:37:01;1.20;99.90
49829;DHT22;35723;51.194;5.112;2022-12-16T02:39:35;1.10;99.90
49829;DHT22;35723;51.194;5.112;2022-12-16T02:42:11;1.10;99.90
49829;DHT22;35723;51.194;5.112;2022-12-16T02:47:23;1.10;99.90
49829;DHT22;35723;51.194;5.112;2022-12-16T02:49:51;1.10;99.90
49829;DHT22;35723;51.194;5.112;2022-12-16T02:52:20;1.20;99.90
49829;DHT22;35723;51.194;5.112;2022-12-16T02:54:48;1.20;99.90
49829;DHT22;35723;51.194;5.112;2022-12-16T03:00:18;1.20;99.90
49829;DHT22;35723;51.194;5.112;2022-12-16T03:03:19;1.20;99.90
49829;DHT22;35723;51.194;5.112;2022-12-16T03:05:44;1.20;99.90
49829;DHT22;35723;51.194;5.112;2022-12-16T03:08:34;1.20;99.90
49829;DHT22;35723;51.194;5.112;2022-12-16T03:11:04;1.20;99.90
49829;DHT22;35723;51.194;5.112;2022-12-16T03:13:37;1.20;99.90
49829;DHT22;35723;51.194;5.112;2022-12-16T03:16:04;1.20;99.90
49829;DHT22;35723;51.194;5.112;2022-12-16T03:18:32;1.20;99.90
49829;DHT22;35723;51.194;5.112;2022-12-16T03:21:04;1.20;99.90
49829;DHT22;35723;51.194;5.112;2022-12-16T03:23:57;1.20;99.90
49829;DHT22;35723;51.194;5.112;2022-12-16T03:26:32;1.30;99.90
49829;DHT22;35723;51.194;5.112;2022-12-16T03:31:59;1.20;99.90
49829;DHT22;35723;51.194;5.112;2022-12-16T03:37:05;1.20;99.90
49829;DHT22;35723;51.194;5.112;2022-12-16T03:39:35;1.20;99.90
49829;DHT22;35723;51.194;5.112;2022-12-16T03:42:03;1.30;99.90
49829;DHT22;35723;51.194;5.112;2022-12-16T03:44:29;1.20;99.90
49829;DHT22;35723;51.194;5.112;2022-12-16T03:46:57;1.30;99.90
49829;DHT22;35723;51.194;5.112;2022-12-16T03:49:22;1.20;99.90
49829;DHT22;35723;51.194;5.112;2022-12-16T03:51:48;1.20;99.90
49829;DHT22;35723;51.194;5.112;2022-12-16T03:54:14;1.20;99.90
49829;DHT22;35723;51.194;5.112;2022-12-16T03:56:39;1.10;99.90
49829;DHT22;35723;51.194;5.112;2022-12-16T03:59:05;1.10;99.90
49829;DHT22;35723;51.194;5.112;2022-12-16T04:01:32;1.10;99.90
49829;DHT22;35723;51.194;5.112;2022-12-16T04:03:58;1.10;99.90
49829;DHT22;35723;51.194;5.112;2022-12-16T04:06:24;1.20;99.90
49829;DHT22;35723;51.194;5.112;2022-12-16T04:08:49;1.20;99.90
49829;DHT22;35723;51.194;5.112;2022-12-16T04:11:15;1.20;99.90
49829;DHT22;35723;51.194;5.112;2022-12-16T04:13:59;1.10;99.90
49829;DHT22;35723;51.194;5.112;2022-12-16T04:16:43;1.20;99.90
49829;DHT22;35723;51.194;5.112;2022-12-16T04:19:33;1.50;99.90
49829;DHT22;35723;51.194;5.112;2022-12-16T04:22:37;1.40;99.90
49829;DHT22;35723;51.194;5.112;2022-12-16T04:25:32;1.30;99.90
49829;DHT22;35723;51.194;5.112;2022-12-16T04:27:59;1.20;99.90
49829;DHT22;35723;51.194;5.112;2022-12-16T04:30:25;1.30;99.90
49829;DHT22;35723;51.194;5.112;2022-12-16T04:33:01;1.20;99.90
49829;DHT22;35723;51.194;5.112;2022-12-16T04:35:46;1.20;99.90
49829;DHT22;35723;51.194;5.112;2022-12-16T04:38:31;1.20;99.90
49829;DHT22;35723;51.194;5.112;2022-12-16T04:41:15;1.30;99.90
49829;DHT22;35723;51.194;5.112;2022-12-16T04:43:59;1.20;99.90
49829;DHT22;35723;51.194;5.112;2022-12-16T04:46:43;1.30;99.90
49829;DHT22;35723;51.194;5.112;2022-12-16T04:49:28;1.30;99.90
49829;DHT22;35723;51.194;5.112;2022-12-16T04:52:12;1.30;99.90
49829;DHT22;35723;51.194;5.112;2022-12-16T04:54:56;1.30;99.90
49829;DHT22;35723;51.194;5.112;2022-12-16T04:57:54;1.30;99.90
49829;DHT22;35723;51.194;5.112;2022-12-16T05:00:39;1.30;99.90
49829;DHT22;35723;51.194;5.112;2022-12-16T05:03:24;1.40;99.90
49829;DHT22;35723;51.194;5.112;2022-12-16T05:06:09;1.30;99.90
49829;DHT22;35723;51.194;5.112;2022-12-16T05:08:53;1.50;99.90
49829;DHT22;35723;51.194;5.112;2022-12-16T05:11:37;1.40;99.90
49829;DHT22;35723;51.194;5.112;2022-12-16T05:14:21;1.40;99.90
49829;DHT22;35723;51.194;5.112;2022-12-16T05:17:05;1.40;99.90
49829;DHT22;35723;51.194;5.112;2022-12-16T05:19:49;1.40;99.90
49829;DHT22;35723;51.194;5.112;2022-12-16T05:22:33;1.30;99.90
49829;DHT22;35723;51.194;5.112;2022-12-16T05:25:17;1.40;99.90
49829;DHT22;35723;51.194;5.112;2022-12-16T05:28:01;1.40;99.90
49829;DHT22;35723;51.194;5.112;2022-12-16T05:30:56;1.40;99.90
49829;DHT22;35723;51.194;5.112;2022-12-16T05:33:40;1.40;99.90
49829;DHT22;35723;51.194;5.112;2022-12-16T05:36:24;1.40;99.90
49829;DHT22;35723;51.194;5.112;2022-12-16T05:39:08;1.50;99.90
49829;DHT22;35723;51.194;5.112;2022-12-16T05:41:53;1.50;99.90
49829;DHT22;35723;51.194;5.112;2022-12-16T05:44:37;1.50;99.90
49829;DHT22;35723;51.194;5.112;2022-12-16T05:47:21;1.50;99.90
49829;DHT22;35723;51.194;5.112;2022-12-16T05:50:06;1.50;99.90
49829;DHT22;35723;51.194;5.112;2022-12-16T05:52:53;1.50;99.90
49829;DHT22;35723;51.194;5.112;2022-12-16T05:55:38;1.50;99.90
49829;DHT22;35723;51.194;5.112;2022-12-16T05:58:23;1.50;99.90
49829;DHT22;35723;51.194;5.112;2022-12-16T06:01:07;1.50;99.90
49829;DHT22;35723;51.194;5.112;2022-12-16T06:03:52;1.50;99.90
49829;DHT22;35723;51.194;5.112;2022-12-16T06:06:36;1.50;99.90
49829;DHT22;35723;51.194;5.112;2022-12-16T06:09:20;1.50;99.90
49829;DHT22;35723;51.194;5.112;2022-12-16T06:12:05;1.50;99.90
49829;DHT22;35723;51.194;5.112;2022-12-16T06:14:49;1.50;99.90
49829;DHT22;35723;51.194;5.112;2022-12-16T06:17:34;1.50;99.90
49829;DHT22;35723;51.194;5.112;2022-12-16T06:20:18;1.60;99.90
49829;DHT22;35723;51.194;5.112;2022-12-16T06:23:10;1.60;99.90
49829;DHT22;35723;51.194;5.112;2022-12-16T06:25:55;1.80;99.90
49829;DHT22;35723;51.194;5.112;2022-12-16T06:28:39;1.60;99.90
49829;DHT22;35723;51.194;5.112;2022-12-16T06:31:23;1.60;99.90
49829;DHT22;35723;51.194;5.112;2022-12-16T06:34:07;1.60;99.90
49829;DHT22;35723;51.194;5.112;2022-12-16T06:36:51;1.60;99.90
49829;DHT22;35723;51.194;5.112;2022-12-16T06:43:04;1.70;99.90
49829;DHT22;35723;51.194;5.112;2022-12-16T06:45:48;1.60;99.90
49829;DHT22;35723;51.194;5.112;2022-12-16T06:48:33;1.70;99.90
49829;DHT22;35723;51.194;5.112;2022-12-16T06:51:16;1.60;99.90
49829;DHT22;35723;51.194;5.112;2022-12-16T06:54:01;1.70;99.90
49829;DHT22;35723;51.194;5.112;2022-12-16T06:56:45;1.80;99.90
49829;DHT22;35723;51.194;5.112;2022-12-16T06:59:29;1.70;99.90
49829;DHT22;35723;51.194;5.112;2022-12-16T07:02:13;1.70;99.90
49829;DHT22;35723;51.194;5.112;2022-12-16T07:04:57;1.70;99.90
49829;DHT22;35723;51.194;5.112;2022-12-16T07:07:50;1.80;99.90
49829;DHT22;35723;51.194;5.112;2022-12-16T07:10:35;1.90;99.90
49829;DHT22;35723;51.194;5.112;2022-12-16T07:13:19;1.80;99.90
49829;DHT22;35723;51.194;5.112;2022-12-16T07:16:03;1.70;99.90
49829;DHT22;35723;51.194;5.112;2022-12-16T12:39:59;3.40;99.90
49829;DHT22;35723;51.194;5.112;2022-12-16T12:42:51;3.40;99.90
49829;DHT22;35723;51.194;5.112;2022-12-16T12:58:28;3.60;99.90
49829;DHT22;35723;51.194;5.112;2022-12-16T13:08:31;3.60;99.90
49829;DHT22;35723;51.194;5.112;2022-12-16T13:11:19;3.70;99.90
49829;DHT22;35723;51.194;5.112;2022-12-16T13:17:16;3.80;99.90
49829;DHT22;35723;51.194;5.112;2022-12-16T13:20:02;3.50;99.90
49829;DHT22;35723;51.194;5.112;2022-12-16T13:22:52;3.30;99.90
49829;DHT22;35723;51.194;5.112;2022-12-16T13:36:05;3.60;99.90
49829;DHT22;35723;51.194;5.112;2022-12-16T14:32:53;3.90;99.90
49829;DHT22;35723;51.194;5.112;2022-12-16T14:39:00;3.90;99.90
49829;DHT22;35723;51.194;5.112;2022-12-16T14:41:49;3.80;99.90
49829;DHT22;35723;51.194;5.112;2022-12-16T14:58:20;3.80;99.90
49829;DHT22;35723;51.194;5.112;2022-12-16T15:08:20;3.70;99.90
49829;DHT22;35723;51.194;5.112;2022-12-16T15:14:46;3.50;99.90
49829;DHT22;35723;51.194;5.112;2022-12-16T15:34:48;3.20;99.90
49829;DHT22;35723;51.194;5.112;2022-12-16T15:41:29;3.10;99.90
49829;DHT22;35723;51.194;5.112;2022-12-16T15:48:11;3.00;99.90
